Time;durP1;ratioP1;P1;durP2;ratioP2;P2;SDS_P1;SDS_P2;PMS_P1;PMS_P2;Temp;Humidity;BMP_temperature;BMP_pressure;BME280_temperature;BME280_humidity;BME280_pressure;Samples;Min_cycle;Max_cycle;Signal;HPM_P1;HPM_P2
2022/07/05 00:00:14;;;;;;;4.93;3.00;;;16.10;99.90;;;;;;9180578;19;20074;-76
2022/07/05 00:03:21;;;;;;;5.78;3.58;;;15.80;99.90;;;;;;9183451;19;20022;-76
2022/07/05 00:06:25;;;;;;;4.80;2.92;;;15.70;99.90;;;;;;9181097;19;20102;-76
2022/07/05 00:09:29;;;;;;;4.57;3.30;;;15.70;99.90;;;;;;9181628;19;20006;-76
2022/07/05 00:12:34;;;;;;;4.88;3.05;;;15.90;99.90;;;;;;9181209;19;20078;-76
2022/07/05 00:15:38;;;;;;;4.85;2.78;;;15.90;99.90;;;;;;9181682;19;20010;-76
2022/07/05 00:18:45;;;;;;;4.88;3.20;;;15.80;99.90;;;;;;9184029;19;20395;-76
2022/07/05 00:21:49;;;;;;;7.47;3.20;;;15.70;99.90;;;;;;9181448;19;20014;-75
2022/07/05 00:24:53;;;;;;;6.03;3.00;;;15.80;99.90;;;;;;9186167;19;20026;-77
2022/07/05 00:27:57;;;;;;;6.75;3.08;;;15.70;99.90;;;;;;9184829;19;20018;-75
2022/07/05 00:31:01;;;;;;;5.38;3.20;;;15.70;99.90;;;;;;9180765;19;20088;-76
2022/07/05 00:34:07;;;;;;;5.70;3.25;;;15.80;99.90;;;;;;9180788;19;20423;-76
2022/07/05 00:37:12;;;;;;;6.93;3.10;;;15.70;99.90;;;;;;9181528;19;20018;-76
2022/07/05 00:40:16;;;;;;;3.60;2.80;;;16.10;99.90;;;;;;9181759;19;20014;-77
2022/07/05 00:43:19;;;;;;;4.68;3.10;;;15.80;99.90;;;;;;9178183;19;20032;-76
2022/07/05 00:46:24;;;;;;;7.97;3.22;;;15.50;99.90;;;;;;9182360;19;20011;-76
2022/07/05 00:49:31;;;;;;;6.03;3.70;;;15.60;99.90;;;;;;9183058;19;20471;-76
2022/07/05 00:52:35;;;;;;;7.43;3.60;;;15.50;99.90;;;;;;9180153;19;20404;-76
2022/07/05 00:55:39;;;;;;;3.85;3.10;;;15.50;99.90;;;;;;9185692;19;20070;-76
2022/07/05 00:58:43;;;;;;;4.05;3.10;;;15.50;99.90;;;;;;9181438;19;20014;-77
2022/07/05 01:01:47;;;;;;;6.22;3.20;;;15.50;99.90;;;;;;9185044;19;20082;-76
2022/07/05 01:04:54;;;;;;;4.90;2.90;;;15.50;99.90;;;;;;9177151;19;20018;-76
2022/07/05 01:07:59;;;;;;;;;;;15.50;99.90;;;;;;9180615;19;20453;-76
2022/07/05 01:11:04;;;;;;;6.88;3.30;;;15.30;99.90;;;;;;9181105;19;19970;-76
2022/07/05 01:14:11;;;;;;;4.43;3.00;;;15.30;99.90;;;;;;9179336;19;20006;-76
2022/07/05 01:17:14;;;;;;;;;;;15.50;99.90;;;;;;9178905;19;20070;-76
2022/07/05 01:20:21;;;;;;;4.32;3.20;;;15.10;99.90;;;;;;9181032;19;19919;-75
2022/07/05 01:23:29;;;;;;;7.25;3.28;;;15.10;99.90;;;;;;9180622;19;20011;-76
2022/07/05 01:26:35;;;;;;;6.43;3.20;;;15.30;99.90;;;;;;9183637;19;20506;-76
2022/07/05 01:29:39;;;;;;;5.65;2.88;;;15.30;99.90;;;;;;9181932;19;20029;-76
2022/07/05 01:32:43;;;;;;;5.00;3.08;;;15.00;99.90;;;;;;9178384;19;20018;-76
2022/07/05 01:35:47;;;;;;;5.18;3.10;;;15.10;99.90;;;;;;9178208;19;20412;-76
2022/07/05 01:38:54;;;;;;;4.88;3.30;;;15.00;99.90;;;;;;9178142;19;20088;-76
2022/07/05 01:41:58;;;;;;;5.97;3.25;;;15.00;99.90;;;;;;9177557;19;20017;-77
2022/07/05 01:45:02;;;;;;;5.25;3.10;;;15.00;99.90;;;;;;9182010;19;20093;-76
2022/07/05 01:48:09;;;;;;;6.57;2.92;;;15.00;99.90;;;;;;9183097;19;20014;-76
2022/07/05 01:51:22;;;;;;;9.75;3.92;;;15.10;99.90;;;;;;9181805;19;20034;-76
2022/07/05 01:54:29;;;;;;;9.85;3.80;;;15.10;99.90;;;;;;9177756;19;20013;-76
2022/07/05 01:57:33;;;;;;;6.95;3.67;;;14.80;99.90;;;;;;9181248;19;20022;-76
2022/07/05 02:00:45;;;;;;;10.32;3.60;;;14.90;99.90;;;;;;9178258;19;20389;-76
2022/07/05 02:03:49;;;;;;;8.65;3.70;;;14.80;99.90;;;;;;9176887;19;20044;-76
2022/07/05 02:06:53;;;;;;;7.10;3.65;;;14.70;99.90;;;;;;9177207;19;20015;-76
2022/07/05 02:09:59;;;;;;;6.20;3.70;;;14.60;99.90;;;;;;9178555;19;20019;-76
2022/07/05 02:13:03;;;;;;;6.07;3.60;;;14.60;99.90;;;;;;9176966;19;20431;-76
2022/07/05 02:16:07;;;;;;;9.23;3.75;;;14.70;99.90;;;;;;9183622;19;20604;-77
2022/07/05 02:19:11;;;;;;;11.05;3.70;;;14.80;99.90;;;;;;9187889;19;20022;-76
2022/07/05 02:22:16;;;;;;;9.82;3.33;;;14.30;99.90;;;;;;9185771;19;20014;-76
2022/07/05 02:25:22;;;;;;;7.32;3.20;;;14.60;99.90;;;;;;9190150;19;20070;-76
2022/07/05 02:28:26;;;;;;;5.78;3.35;;;14.60;99.90;;;;;;9186233;19;20022;-75
2022/07/05 02:31:30;;;;;;;6.35;3.05;;;14.40;99.90;;;;;;9189127;19;20517;-76
2022/07/05 02:34:34;;;;;;;8.10;3.10;;;14.40;99.90;;;;;;9185508;19;20014;-75
2022/07/05 02:37:39;;;;;;;5.47;3.05;;;14.50;99.90;;;;;;9189741;19;20025;-76
2022/07/05 02:40:45;;;;;;;7.65;2.88;;;14.50;99.90;;;;;;9186717;19;20090;-76
2022/07/05 02:43:49;;;;;;;6.55;3.28;;;14.50;99.90;;;;;;9182083;19;20078;-76
2022/07/05 02:46:53;;;;;;;8.30;3.35;;;14.50;99.90;;;;;;9185029;19;20021;-76
2022/07/05 02:49:57;;;;;;;6.47;3.05;;;14.50;99.90;;;;;;9184256;19;20010;-75
2022/07/05 02:53:02;;;;;;;6.53;2.85;;;14.30;99.90;;;;;;9186986;19;20025;-76
2022/07/05 02:56:09;;;;;;;7.60;3.13;;;14.40;99.90;;;;;;9188980;19;20022;-76
2022/07/05 02:59:13;;;;;;;10.70;4.13;;;14.80;99.90;;;;;;9184213;19;20022;-75
2022/07/05 03:02:17;;;;;;;7.20;3.25;;;14.50;99.90;;;;;;9184146;19;20538;-76
2022/07/05 03:05:21;;;;;;;6.50;3.35;;;14.20;99.90;;;;;;9183957;19;20019;-76
2022/07/05 03:08:25;;;;;;;8.65;3.85;;;14.30;99.90;;;;;;9184049;19;20018;-75
2022/07/05 03:11:31;;;;;;;6.70;3.40;;;14.20;99.90;;;;;;9185931;19;20018;-75
2022/07/05 03:14:35;;;;;;;4.30;3.60;;;14.10;99.90;;;;;;9183640;19;20017;-76
2022/07/05 03:17:39;;;;;;;4.80;3.78;;;14.30;99.90;;;;;;9183507;19;20554;-75
2022/07/05 03:20:43;;;;;;;8.60;3.75;;;14.50;99.90;;;;;;9184848;19;20018;-76
2022/07/05 03:23:47;;;;;;;6.30;4.10;;;14.20;99.90;;;;;;9186141;19;20082;-76
2022/07/05 03:26:53;;;;;;;6.32;3.78;;;14.10;99.90;;;;;;9184080;19;20010;-76
2022/07/05 03:29:57;;;;;;;4.72;3.35;;;14.10;99.90;;;;;;9184787;19;20018;-75
2022/07/05 03:33:01;;;;;;;7.05;4.18;;;14.10;99.90;;;;;;9183761;19;20027;-75
2022/07/05 03:36:05;;;;;;;5.35;3.80;;;14.10;99.90;;;;;;9181431;19;20514;-75
2022/07/05 03:39:09;;;;;;;7.32;4.43;;;14.00;99.90;;;;;;9190343;19;21351;-75
2022/07/05 03:42:16;;;;;;;6.35;3.92;;;13.90;99.90;;;;;;9185499;19;20018;-75
2022/07/05 03:45:20;;;;;;;6.65;4.30;;;13.90;99.90;;;;;;9193527;19;20009;-75
2022/07/05 03:48:24;;;;;;;9.15;4.20;;;13.80;99.90;;;;;;9188580;19;20022;-75
2022/07/05 03:51:27;;;;;;;6.53;4.40;;;13.90;99.90;;;;;;9188133;19;20031;-75
2022/07/05 03:54:32;;;;;;;7.90;4.10;;;13.90;99.90;;;;;;9186366;19;20011;-76
2022/07/05 03:57:38;;;;;;;5.90;3.90;;;13.90;99.90;;;;;;9184534;19;20475;-75
2022/07/05 04:00:42;;;;;;;7.78;4.60;;;13.90;99.90;;;;;;9183602;19;20050;-76
2022/07/05 04:03:46;;;;;;;8.45;4.40;;;13.80;99.90;;;;;;9181416;19;20006;-75
2022/07/05 04:06:50;;;;;;;6.20;4.25;;;13.90;99.90;;;;;;9181431;19;20010;-76
2022/07/05 04:09:54;;;;;;;5.43;4.00;;;13.70;99.90;;;;;;9183042;19;20025;-75
2022/07/05 04:13:01;;;;;;;6.43;4.13;;;13.80;99.90;;;;;;9179762;19;20037;-75
2022/07/05 04:16:05;;;;;;;9.82;4.20;;;13.70;99.90;;;;;;9182193;19;20074;-75
2022/07/05 04:19:09;;;;;;;9.90;4.28;;;;;;;;;;9185390;19;20014;-76
2022/07/05 04:22:13;;;;;;;6.13;4.15;;;13.80;99.90;;;;;;9178725;19;20363;-76
2022/07/05 04:25:20;;;;;;;9.52;4.47;;;13.80;99.90;;;;;;9180965;19;20047;-75
2022/07/05 04:28:29;;;;;;;6.03;4.50;;;13.80;99.90;;;;;;9182016;19;20014;-76
2022/07/05 04:31:33;;;;;;;9.27;4.90;;;13.80;99.90;;;;;;9181381;19;20074;-75
2022/07/05 04:34:37;;;;;;;9.68;5.15;;;13.80;99.90;;;;;;9184312;19;20014;-75
2022/07/05 04:37:41;;;;;;;9.00;5.10;;;13.90;99.90;;;;;;9177955;19;20401;-76
2022/07/05 04:40:45;;;;;;;8.32;4.45;;;13.80;99.90;;;;;;9179610;19;20021;-75
2022/07/05 04:43:51;;;;;;;6.85;4.90;;;13.90;99.90;;;;;;9175910;19;20015;-75
2022/07/05 04:46:55;;;;;;;10.85;4.90;;;13.70;99.90;;;;;;9182057;19;20082;-76
2022/07/05 04:50:00;;;;;;;7.25;4.72;;;13.60;99.90;;;;;;9183290;19;20022;-75
2022/07/05 04:53:03;;;;;;;8.98;5.10;;;13.70;99.90;;;;;;9181139;19;20025;-76
2022/07/05 04:56:08;;;;;;;6.82;4.90;;;13.80;99.90;;;;;;9182267;19;20041;-75
2022/07/05 04:59:15;;;;;;;9.52;4.97;;;14.00;99.90;;;;;;9179961;19;20386;-76
2022/07/05 05:02:18;;;;;;;8.25;4.80;;;13.90;99.90;;;;;;9182257;19;20018;-76
2022/07/05 05:05:22;;;;;;;6.95;4.50;;;13.80;99.90;;;;;;9180538;19;20070;-75
2022/07/05 05:08:26;;;;;;;8.25;4.78;;;13.80;99.90;;;;;;9182193;19;20516;-76
2022/07/05 05:11:30;;;;;;;9.30;5.00;;;13.80;99.90;;;;;;9180570;19;20487;-76
2022/07/05 05:14:37;;;;;;;7.57;4.60;;;13.90;99.90;;;;;;9182031;19;20011;-76
2022/07/05 05:17:42;;;;;;;8.02;4.88;;;14.00;99.90;;;;;;9180876;19;20018;-75
2022/07/05 05:20:46;;;;;;;10.98;5.07;;;14.00;99.90;;;;;;9181304;19;20368;-76
2022/07/05 05:23:50;;;;;;;6.90;4.90;;;13.90;99.90;;;;;;9182152;19;20380;-76
2022/07/05 05:26:54;;;;;;;10.32;5.15;;;13.90;99.90;;;;;;9182382;19;20007;-77
2022/07/05 05:30:01;;;;;;;7.63;4.80;;;14.20;99.90;;;;;;9180676;19;20078;-76
2022/07/05 05:33:05;;;;;;;9.55;5.20;;;;;;;;;;9181493;19;20118;-76
2022/07/05 05:36:10;;;;;;;6.85;4.50;;;14.20;99.90;;;;;;9179300;19;20018;-76
2022/07/05 05:39:13;;;;;;;7.00;4.22;;;14.30;99.90;;;;;;9182432;19;20371;-75
2022/07/05 05:42:17;;;;;;;8.95;4.68;;;14.20;99.90;;;;;;9176683;19;20011;-76
2022/07/05 05:45:24;;;;;;;6.00;4.13;;;14.20;99.90;;;;;;9181101;19;20483;-76
2022/07/05 05:48:28;;;;;;;7.45;4.00;;;14.40;99.90;;;;;;9180538;19;20058;-76
2022/07/05 05:51:32;;;;;;;6.38;3.83;;;14.30;99.90;;;;;;9197993;19;20044;-76
2022/07/05 05:54:36;;;;;;;5.80;3.70;;;14.10;99.90;;;;;;9195189;19;20018;-75
2022/07/05 05:57:41;;;;;;;6.72;3.60;;;12.70;99.90;;;;;;9200816;19;20022;-75
2022/07/05 06:00:48;;;;;;;5.60;3.60;;;14.00;99.90;;;;;;9197882;19;20052;-75
2022/07/05 06:03:52;;;;;;;7.05;3.65;;;;;;;;;;9196149;19;20030;-75
2022/07/05 06:06:56;;;;;;;7.85;3.47;;;14.60;99.90;;;;;;9198185;19;20021;-75
2022/07/05 06:10:00;;;;;;;6.85;3.72;;;14.70;99.90;;;;;;9199741;19;20082;-76
2022/07/05 06:13:06;;;;;;;6.60;3.63;;;14.70;99.90;;;;;;9197274;19;20014;-76
2022/07/05 06:16:12;;;;;;;7.57;3.63;;;14.80;99.90;;;;;;9195451;19;20525;-76
2022/07/05 06:19:16;;;;;;;6.07;3.75;;;14.80;99.90;;;;;;9194088;19;20049;-76
2022/07/05 06:22:20;;;;;;;5.00;3.10;;;14.80;99.90;;;;;;9192386;19;20530;-76
2022/07/05 06:25:25;;;;;;;5.60;3.25;;;14.90;99.90;;;;;;9198423;19;20025;-76
2022/07/05 06:28:31;;;;;;;5.70;2.85;;;14.80;99.90;;;;;;9194013;19;20376;-76
2022/07/05 06:31:38;;;;;;;6.18;3.22;;;14.80;99.90;;;;;;9193051;19;20011;-76
2022/07/05 06:34:42;;;;;;;4.70;2.38;;;15.00;99.90;;;;;;9196667;19;20086;-76
2022/07/05 06:37:48;;;;;;;4.97;2.50;;;15.00;99.90;;;;;;9193718;19;20006;-76
2022/07/05 06:40:53;;;;;;;6.60;2.60;;;15.30;99.90;;;;;;9194137;19;20081;-76
2022/07/05 06:43:57;;;;;;;4.18;2.40;;;15.00;99.90;;;;;;9191573;19;20020;-76
2022/07/05 06:47:04;;;;;;;3.63;2.10;;;15.00;99.90;;;;;;9193083;19;20363;-76
2022/07/05 06:50:10;;;;;;;5.47;1.95;;;15.20;99.90;;;;;;9195874;19;20394;-76
2022/07/05 06:53:14;;;;;;;6.28;2.05;;;15.40;99.90;;;;;;9192721;19;20411;-76
2022/07/05 06:56:19;;;;;;;3.75;1.77;;;15.40;99.90;;;;;;9199768;19;20605;-76
2022/07/05 06:59:24;;;;;;;4.63;1.92;;;15.00;99.90;;;;;;9200717;19;20384;-76
2022/07/05 07:02:31;;;;;;;4.40;1.50;;;15.60;99.90;;;;;;9191235;19;20021;-76
2022/07/05 07:05:35;;;;;;;2.90;1.60;;;15.40;99.90;;;;;;9195755;19;20023;-76
2022/07/05 07:11:55;;;;;;;6.35;1.65;;;15.50;99.90;;;;;;9185404;19;20011;-76
2022/07/05 07:15:00;;;;;;;5.30;1.70;;;15.30;99.90;;;;;;9185564;19;20021;-76
2022/07/05 07:18:07;;;;;;;3.10;1.50;;;15.50;99.90;;;;;;9184062;19;20011;-76
2022/07/05 07:21:11;;;;;;;2.45;1.30;;;15.70;99.90;;;;;;9188138;19;20015;-76
2022/07/05 07:24:15;;;;;;;4.38;1.40;;;15.60;99.90;;;;;;9183347;19;20051;-76
2022/07/05 07:27:19;;;;;;;3.28;1.08;;;15.70;99.90;;;;;;9182910;19;20014;-76
2022/07/05 07:30:25;;;;;;;4.10;1.30;;;15.80;99.90;;;;;;9189282;19;20025;-76
2022/07/05 07:33:32;;;;;;;3.85;1.23;;;15.70;99.90;;;;;;9183031;19;20010;-77
2022/07/05 07:36:36;;;;;;;3.30;1.42;;;16.00;99.90;;;;;;9186955;19;20022;-76
2022/07/05 07:39:40;;;;;;;4.53;1.30;;;15.90;99.90;;;;;;9182926;19;20048;-76
2022/07/05 07:42:44;;;;;;;1.90;1.15;;;15.90;99.90;;;;;;9180385;19;20074;-76
2022/07/05 07:45:48;;;;;;;3.08;1.20;;;16.00;99.90;;;;;;9185727;19;20010;-76
2022/07/05 07:48:55;;;;;;;8.25;1.50;;;15.90;99.90;;;;;;9183658;19;20023;-76
2022/07/05 07:51:59;;;;;;;2.75;1.23;;;16.50;99.90;;;;;;9182001;19;20018;-76
2022/07/05 07:55:03;;;;;;;1.50;1.00;;;16.10;99.90;;;;;;9185712;19;20019;-76
2022/07/05 07:58:08;;;;;;;2.22;1.20;;;16.00;99.90;;;;;;9182497;19;20014;-76
2022/07/05 08:01:14;;;;;;;3.92;1.20;;;16.20;99.90;;;;;;9181887;19;20014;-76
2022/07/05 08:04:20;;;;;;;3.55;1.30;;;16.20;99.90;;;;;;9181226;19;20491;-81
2022/07/05 08:07:24;;;;;;;2.38;1.05;;;16.10;99.90;;;;;;9186269;19;20352;-82
2022/07/05 08:10:28;;;;;;;3.65;1.10;;;16.40;99.90;;;;;;9186095;19;20433;-79
2022/07/05 08:13:32;;;;;;;3.35;1.30;;;16.30;99.90;;;;;;9184314;19;20493;-83
2022/07/05 08:16:36;;;;;;;2.72;1.05;;;16.40;99.90;;;;;;9184550;19;20097;-78
2022/07/05 08:23:00;;;;;;;3.13;1.23;;;16.80;99.90;;;;;;9179671;19;20083;-79
2022/07/05 08:26:04;;;;;;;2.67;1.20;;;16.70;99.90;;;;;;9184411;19;20363;-83
2022/07/05 08:29:10;;;;;;;7.22;1.40;;;16.60;99.90;;;;;;9182067;19;20070;-81
2022/07/05 08:32:14;;;;;;;4.85;1.42;;;16.60;99.90;;;;;;9184313;19;20066;-82
2022/07/05 08:35:21;;;;;;;6.30;1.65;;;16.90;99.90;;;;;;9182376;19;20022;-82
2022/07/05 08:38:25;;;;;;;2.40;1.20;;;16.70;99.90;;;;;;9180843;19;20014;-86
2022/07/05 08:41:28;;;;;;;2.22;1.13;;;16.90;99.90;;;;;;9180671;19;20033;-75
2022/07/05 08:44:38;;;;;;;2.65;1.20;;;16.80;99.90;;;;;;9180600;19;20025;-80
2022/07/05 08:47:44;;;;;;;2.63;1.00;;;16.90;99.90;;;;;;9183356;19;20063;-85
2022/07/05 08:50:52;;;;;;;3.67;1.20;;;16.90;99.90;;;;;;9183027;19;20018;-72
2022/07/05 08:53:57;;;;;;;5.45;1.10;;;17.00;99.90;;;;;;9181300;19;20089;-77
2022/07/05 08:57:01;;;;;;;4.07;1.50;;;17.10;99.90;;;;;;9182061;19;20043;-73
2022/07/05 09:00:06;;;;;;;2.65;1.02;;;16.80;99.90;;;;;;9178596;19;20019;-80
2022/07/05 09:03:11;;;;;;;3.85;1.33;;;16.90;99.90;;;;;;9181351;19;20037;-78
2022/07/05 09:06:21;;;;;;;3.30;1.57;;;16.80;99.90;;;;;;9181063;19;20036;-77
2022/07/05 09:09:27;;;;;;;3.05;1.05;;;17.00;99.90;;;;;;9178899;19;20367;-77
2022/07/05 09:12:31;;;;;;;3.00;1.30;;;16.90;99.90;;;;;;9177780;19;20038;-76
2022/07/05 09:15:34;;;;;;;5.72;1.33;;;16.80;99.90;;;;;;9178856;19;20015;-77
2022/07/05 09:18:42;;;;;;;7.00;1.60;;;17.00;99.90;;;;;;9180642;19;20015;-77
2022/07/05 09:21:49;;;;;;;6.32;1.40;;;16.90;99.90;;;;;;9176953;19;20021;-77
2022/07/05 09:24:53;;;;;;;3.55;1.33;;;15.90;99.90;;;;;;9178461;19;20028;-80
2022/07/05 09:27:59;;;;;;;2.92;1.58;;;17.20;99.90;;;;;;9183275;19;20011;-75
2022/07/05 09:31:03;;;;;;;5.67;1.60;;;17.30;99.90;;;;;;9179591;19;20359;-76
2022/07/05 09:34:09;;;;;;;3.72;1.30;;;17.20;99.90;;;;;;9177391;19;20480;-76
2022/07/05 09:37:15;;;;;;;2.05;1.05;;;17.00;99.90;;;;;;9179749;19;20491;-79
2022/07/05 09:40:19;;;;;;;5.35;1.30;;;17.10;99.90;;;;;;9182390;19;20022;-74
2022/07/05 09:43:25;;;;;;;5.75;1.40;;;17.00;99.90;;;;;;9177990;19;20018;-78
2022/07/05 09:46:32;;;;;;;5.13;1.60;;;17.20;99.90;;;;;;9178884;19;20017;-82
2022/07/05 09:49:36;;;;;;;4.35;1.55;;;17.00;99.90;;;;;;9182107;19;20078;-81
2022/07/05 09:52:44;;;;;;;2.95;1.23;;;17.00;99.90;;;;;;9179672;19;20010;-81
2022/07/05 09:56:04;;;;;;;1.60;1.02;;;16.80;99.90;;;;;;9178794;19;20015;-77
2022/07/05 09:59:22;;;;;;;4.43;1.38;;;17.00;99.90;;;;;;9181736;19;20014;-76
2022/07/05 10:02:37;;;;;;;4.25;1.30;;;17.10;99.90;;;;;;9181251;19;20011;-78
2022/07/05 10:05:42;;;;;;;4.63;1.30;;;17.10;99.90;;;;;;9178732;19;20032;-80
2022/07/05 10:08:51;;;;;;;3.05;1.40;;;17.10;99.90;;;;;;9182593;19;20077;-78
2022/07/05 10:11:56;;;;;;;3.97;1.45;;;17.30;99.90;;;;;;9193323;19;20044;-79
2022/07/05 10:15:01;;;;;;;3.35;1.20;;;17.30;99.90;;;;;;9197451;19;20006;-79
2022/07/05 10:18:08;;;;;;;2.53;1.48;;;17.40;99.90;;;;;;9188314;19;20014;-81
2022/07/05 10:21:17;;;;;;;4.90;1.58;;;17.30;99.90;;;;;;9205669;19;20022;-83
2022/07/05 10:24:24;;;;;;;7.22;1.50;;;17.50;99.90;;;;;;9184560;19;20051;-84
2022/07/05 10:27:31;;;;;;;4.68;1.20;;;17.40;99.90;;;;;;9181277;19;20011;-81
2022/07/05 10:30:35;;;;;;;4.70;1.60;;;17.50;99.90;;;;;;9178125;19;20011;-81
2022/07/05 10:33:39;;;;;;;5.93;1.60;;;17.60;99.90;;;;;;9176609;19;20019;-75
2022/07/05 10:36:44;;;;;;;3.40;1.33;;;17.80;99.90;;;;;;9176404;19;20018;-73
2022/07/05 10:39:51;;;;;;;5.45;1.35;;;17.70;99.20;;;;;;9188732;19;20367;-74
2022/07/05 10:42:57;;;;;;;;;;;17.80;99.00;;;;;;9182446;19;20018;-76
2022/07/05 10:46:02;;;;;;;8.57;1.70;;;17.70;98.30;;;;;;9185128;19;19922;-75
2022/07/05 10:49:16;;;;;;;3.08;1.35;;;17.80;98.80;;;;;;9183464;19;20014;-73
2022/07/05 10:52:27;;;;;;;4.60;1.40;;;17.60;98.90;;;;;;9181509;19;20010;-71
2022/07/05 10:55:50;;;;;;;4.35;1.38;;;17.70;98.60;;;;;;9184916;19;20021;-74
2022/07/05 10:59:09;;;;;;;3.58;1.40;;;17.60;99.40;;;;;;9183073;19;20337;-74
2022/07/05 11:02:15;;;;;;;3.15;1.40;;;17.60;99.90;;;;;;9184515;19;20042;-72
2022/07/05 11:05:19;;;;;;;3.92;1.25;;;17.80;99.90;;;;;;9184076;19;20014;-73
2022/07/05 11:08:24;;;;;;;3.78;1.38;;;17.90;98.30;;;;;;9182691;19;20071;-75
2022/07/05 11:11:33;;;;;;;2.85;1.30;;;17.90;98.40;;;;;;9180540;19;20026;-76
2022/07/05 11:14:41;;;;;;;4.28;1.50;;;18.00;98.70;;;;;;9186478;19;20060;-75
2022/07/05 11:17:45;;;;;;;3.13;1.30;;;18.10;99.20;;;;;;9186694;19;20019;-73
2022/07/05 11:20:49;;;;;;;7.00;1.40;;;18.20;99.10;;;;;;9180707;19;20066;-74
2022/07/05 11:24:13;;;;;;;3.13;1.40;;;18.20;97.90;;;;;;9184128;19;20094;-74
2022/07/05 11:27:20;;;;;;;3.88;1.40;;;18.00;97.70;;;;;;9184759;19;20007;-73
2022/07/05 11:30:26;;;;;;;3.58;1.20;;;18.20;97.60;;;;;;9182016;19;20022;-73
2022/07/05 11:33:36;;;;;;;3.70;1.30;;;18.20;98.00;;;;;;9181938;19;20360;-73
2022/07/05 11:36:40;;;;;;;4.43;1.67;;;18.20;96.40;;;;;;9187323;19;20032;-73
2022/07/05 11:39:44;;;;;;;5.40;1.20;;;18.30;96.70;;;;;;9183100;19;20044;-73
2022/07/05 11:42:53;;;;;;;2.53;1.00;;;18.40;96.00;;;;;;9179846;19;20007;-72
2022/07/05 11:46:02;;;;;;;3.22;1.00;;;18.30;96.20;;;;;;9182721;19;20014;-72
2022/07/05 11:49:06;;;;;;;2.30;1.20;;;18.40;96.20;;;;;;9181986;19;20017;-75
2022/07/05 11:52:10;;;;;;;3.38;1.17;;;18.60;96.30;;;;;;9185493;19;20018;-72
2022/07/05 11:55:14;;;;;;;6.60;1.42;;;18.30;95.50;;;;;;9182698;19;20340;-73
2022/07/05 11:58:21;;;;;;;3.42;1.40;;;18.40;95.70;;;;;;9184182;19;20078;-73
2022/07/05 12:01:26;;;;;;;2.67;1.20;;;18.60;95.10;;;;;;9183192;19;20015;-75
2022/07/05 12:04:31;;;;;;;4.70;1.50;;;18.50;95.40;;;;;;9176851;19;20022;-72
2022/07/05 12:07:37;;;;;;;3.63;1.60;;;17.00;95.50;;;;;;9178587;19;20026;-74
2022/07/05 12:14:08;;;;;;;4.20;1.50;;;18.90;95.80;;;;;;9182417;19;20019;-73
2022/07/05 12:17:13;;;;;;;;;;;18.80;97.30;;;;;;9186269;19;20018;-73
2022/07/05 12:20:22;;;;;;;4.50;1.90;;;18.80;98.30;;;;;;9186877;19;19926;-72
2022/07/05 12:23:29;;;;;;;4.05;1.52;;;18.30;99.70;;;;;;9179701;19;20011;-75
2022/07/05 12:26:33;;;;;;;;;;;18.20;99.90;;;;;;9183564;19;20368;-74
2022/07/05 12:29:40;;;;;;;5.05;1.70;;;18.10;99.90;;;;;;9184943;19;19982;-74
2022/07/05 12:32:57;;;;;;;3.28;1.25;;;18.30;99.90;;;;;;9187042;19;20062;-75
2022/07/05 12:36:02;;;;;;;7.70;1.60;;;18.40;99.90;;;;;;9180184;19;20018;-72
2022/07/05 12:39:06;;;;;;;6.15;1.45;;;18.60;99.90;;;;;;9181606;19;20040;-75
2022/07/05 12:42:10;;;;;;;3.20;1.40;;;18.80;99.90;;;;;;9180700;19;20021;-75
2022/07/05 12:45:19;;;;;;;7.18;1.60;;;18.80;99.90;;;;;;9182118;19;20018;-74
2022/07/05 12:48:33;;;;;;;5.63;1.75;;;18.50;99.90;;;;;;9180759;19;20224;-74
2022/07/05 12:51:38;;;;;;;4.82;1.50;;;18.20;99.90;;;;;;9185499;19;20014;-73
2022/07/05 12:58:06;;;;;;;4.85;1.67;;;18.40;99.90;;;;;;9179741;19;20014;-74
2022/07/05 13:01:25;;;;;;;3.70;1.50;;;18.40;99.90;;;;;;9179284;19;20018;-74
2022/07/05 13:04:29;;;;;;;6.43;1.35;;;18.50;99.90;;;;;;9180568;19;20461;-74
2022/07/05 13:07:33;;;;;;;8.80;1.48;;;18.50;99.90;;;;;;9179881;19;20014;-73
2022/07/05 13:10:38;;;;;;;6.10;1.80;;;18.80;99.90;;;;;;9179039;19;20017;-73
2022/07/05 13:13:43;;;;;;;4.57;1.70;;;19.10;99.40;;;;;;9182201;19;20349;-72
2022/07/05 13:16:49;;;;;;;3.70;1.30;;;18.90;99.70;;;;;;9177648;19;20010;-74
2022/07/05 13:19:55;;;;;;;5.25;1.67;;;18.70;99.50;;;;;;9178933;19;20010;-74
2022/07/05 13:22:59;;;;;;;4.90;1.35;;;18.40;98.10;;;;;;9181350;19;20103;-74
2022/07/05 13:26:03;;;;;;;4.03;1.38;;;18.70;98.90;;;;;;9178385;19;20014;-74
2022/07/05 13:29:07;;;;;;;2.90;1.10;;;19.10;97.60;;;;;;9179822;19;20010;-75
2022/07/05 13:32:15;;;;;;;2.55;1.00;;;19.10;97.20;;;;;;9179921;19;20490;-74
2022/07/05 13:35:19;;;;;;;4.78;1.30;;;19.30;97.00;;;;;;9178221;19;20010;-75
2022/07/05 13:38:23;;;;;;;4.93;1.15;;;19.50;96.20;;;;;;9180198;19;20014;-74
2022/07/05 13:41:28;;;;;;;2.55;1.02;;;19.80;95.70;;;;;;9177483;19;20483;-75
2022/07/05 13:44:32;;;;;;;2.45;1.17;;;19.90;94.10;;;;;;9177762;19;20018;-74
2022/07/05 13:47:40;;;;;;;4.50;1.42;;;20.00;93.70;;;;;;9177872;19;20007;-74
2022/07/05 13:50:45;;;;;;;3.78;1.50;;;19.70;93.60;;;;;;9177608;19;20494;-75
2022/07/05 13:53:49;;;;;;;4.97;1.10;;;19.50;93.90;;;;;;9181403;19;20019;-76
2022/07/05 13:56:53;;;;;;;2.50;1.20;;;19.80;94.70;;;;;;9181670;19;20356;-75
2022/07/05 13:59:57;;;;;;;4.28;1.25;;;20.10;94.20;;;;;;9182152;19;20074;-75
2022/07/05 14:03:04;;;;;;;2.45;1.13;;;20.00;93.20;;;;;;9179390;19;20014;-76
2022/07/05 14:06:08;;;;;;;4.18;1.40;;;20.00;94.30;;;;;;9177041;19;20400;-77
2022/07/05 14:09:12;;;;;;;4.40;1.60;;;20.20;94.50;;;;;;9176847;19;20011;-76
2022/07/05 14:12:16;;;;;;;3.65;1.30;;;19.90;91.40;;;;;;9184666;19;20022;-75
2022/07/05 14:15:21;;;;;;;4.05;1.20;;;19.80;93.60;;;;;;9182851;19;20033;-76
2022/07/05 14:18:27;;;;;;;5.43;1.60;;;19.60;95.10;;;;;;9185398;19;20018;-75
2022/07/05 14:21:31;;;;;;;5.53;1.30;;;20.10;93.80;;;;;;9185315;19;20178;-75
2022/07/05 14:24:35;;;;;;;5.93;1.40;;;20.10;94.30;;;;;;9182759;19;20041;-75
2022/07/05 14:27:40;;;;;;;3.05;1.30;;;20.50;93.80;;;;;;9185641;19;20064;-75
2022/07/05 14:30:45;;;;;;;3.70;1.50;;;20.60;92.70;;;;;;9189716;19;20535;-74
2022/07/05 14:33:52;;;;;;;3.70;1.40;;;20.40;92.50;;;;;;9189430;19;20124;-74
2022/07/05 14:36:56;;;;;;;2.95;1.50;;;20.20;92.10;;;;;;9185029;19;20018;-74
2022/07/05 14:40:00;;;;;;;3.35;1.23;;;20.60;91.40;;;;;;9184334;19;20019;-74
2022/07/05 14:43:04;;;;;;;2.47;1.23;;;20.80;90.10;;;;;;9186075;19;20089;-74
2022/07/05 14:46:11;;;;;;;4.72;1.55;;;21.70;90.50;;;;;;9187758;19;20022;-75
2022/07/05 14:49:18;;;;;;;5.80;2.15;;;20.80;90.00;;;;;;9187494;19;20033;-75
2022/07/05 14:52:22;;;;;;;4.13;1.30;;;17.90;90.00;;;;;;9184886;19;20014;-75
2022/07/05 14:55:26;;;;;;;4.85;1.40;;;20.10;92.20;;;;;;9184780;19;20042;-75
2022/07/05 14:58:31;;;;;;;7.35;2.03;;;20.30;92.50;;;;;;9186995;19;20025;-75
2022/07/05 15:01:35;;;;;;;5.93;2.22;;;20.30;92.70;;;;;;9186795;19;20014;-75
2022/07/05 15:04:42;;;;;;;3.92;1.30;;;20.50;92.50;;;;;;9186132;19;20014;-75
2022/07/05 15:07:46;;;;;;;3.80;1.40;;;20.20;92.00;;;;;;9182646;19;20051;-76
2022/07/05 15:10:51;;;;;;;10.15;3.72;;;20.00;92.20;;;;;;9183577;19;20053;-75
2022/07/05 15:13:55;;;;;;;6.45;2.47;;;20.00;92.60;;;;;;9185345;19;20018;-75
2022/07/05 15:16:59;;;;;;;4.15;1.40;;;19.90;92.00;;;;;;9183956;19;20010;-75
2022/07/05 15:20:06;;;;;;;2.85;1.40;;;19.70;93.10;;;;;;9184866;19;20010;-74
2022/07/05 15:23:11;;;;;;;3.22;1.40;;;19.80;92.90;;;;;;9180946;19;20364;-75
2022/07/05 15:26:15;;;;;;;3.10;1.40;;;19.80;93.20;;;;;;9190077;19;20070;-74
2022/07/05 15:29:19;;;;;;;7.50;1.65;;;19.90;92.50;;;;;;9184022;19;20015;-75
2022/07/05 15:32:23;;;;;;;3.25;1.10;;;20.00;92.40;;;;;;9185305;19;20040;-76
2022/07/05 15:35:30;;;;;;;6.30;2.08;;;20.10;92.30;;;;;;9185914;19;20081;-75
2022/07/05 15:38:34;;;;;;;4.15;1.52;;;20.00;92.20;;;;;;9186209;19;20044;-75
2022/07/05 15:41:38;;;;;;;4.93;1.30;;;19.60;91.80;;;;;;9183140;19;20015;-75
2022/07/05 15:44:42;;;;;;;8.15;3.15;;;19.30;91.90;;;;;;9184311;19;20025;-75
2022/07/05 15:47:46;;;;;;;2.25;1.20;;;19.30;92.10;;;;;;9182419;19;20019;-75
2022/07/05 15:50:53;;;;;;;1.38;0.98;;;19.40;93.00;;;;;;9180959;19;20047;-75
2022/07/05 15:53:57;;;;;;;4.78;1.10;;;19.50;92.60;;;;;;9181851;19;20049;-75
2022/07/05 15:57:01;;;;;;;6.05;2.30;;;20.30;92.50;;;;;;9185388;19;20018;-75
2022/07/05 16:00:06;;;;;;;4.47;1.20;;;20.40;91.00;;;;;;9186401;19;20088;-75
2022/07/05 16:03:10;;;;;;;3.95;1.73;;;20.10;90.40;;;;;;9184447;19;20011;-75
2022/07/05 16:06:17;;;;;;;4.20;1.90;;;19.50;91.20;;;;;;9181926;19;20038;-75
2022/07/05 16:09:21;;;;;;;3.95;0.93;;;19.20;92.00;;;;;;9182590;19;20433;-76
2022/07/05 16:12:25;;;;;;;3.97;1.00;;;18.90;92.60;;;;;;9181601;19;20483;-77
2022/07/05 16:18:48;;;;;;;5.50;1.42;;;18.60;93.60;;;;;;9181140;19;20072;-74
2022/07/05 16:21:55;;;;;;;3.65;1.40;;;18.50;93.60;;;;;;9188416;19;20017;-76